Time;durP1;ratioP1;P1;durP2;ratioP2;P2;SDS_P1;SDS_P2;PMS_P1;PMS_P2;Temp;Humidity;BMP_temperature;BMP_pressure;BME280_temperature;BME280_humidity;BME280_pressure;Samples;Min_cycle;Max_cycle;Signal;HPM_P1;HPM_P2
2023/11/01 00:05:17;;;;;;;;;;;7.30;99.90;;;;;;21359846;27;20396;-80
2023/11/01 00:15:17;;;;;;;;;;;7.30;99.90;;;;;;21350544;27;19915;-80
2023/11/01 00:25:18;;;;;;;;;;;7.30;99.90;;;;;;21361699;27;19979;-80
2023/11/01 00:35:19;;;;;;;;;;;7.10;99.90;;;;;;21360423;27;19998;-80
2023/11/01 00:45:19;;;;;;;;;;;6.90;99.90;;;;;;21370452;27;20574;-80
2023/11/01 00:55:20;;;;;;;;;;;6.50;99.90;;;;;;21356518;27;19915;-80
2023/11/01 01:05:22;;;;;;;;;;;6.30;99.90;;;;;;21349530;27;20285;-79
2023/11/01 01:15:23;;;;;;;;;;;6.80;99.90;;;;;;21353534;27;19976;-80
2023/11/01 01:25:23;;;;;;;;;;;7.00;99.90;;;;;;21355558;27;19911;-80
2023/11/01 01:35:24;;;;;;;;;;;6.80;99.90;;;;;;21341618;27;20535;-80
2023/11/01 01:45:25;;;;;;;;;;;7.00;99.90;;;;;;21368216;27;19919;-76
2023/11/01 01:55:25;;;;;;;;;;;6.60;99.90;;;;;;21347851;27;19949;-78
2023/11/01 02:05:27;;;;;;;;;;;6.70;99.90;;;;;;21329214;27;19911;-80
2023/11/01 02:15:27;;;;;;;;;;;6.40;99.90;;;;;;21365591;27;19915;-80
2023/11/01 02:25:28;;;;;;;;;;;6.30;99.90;;;;;;21349449;27;19918;-80
2023/11/01 02:35:29;;;;;;;;;;;6.50;99.90;;;;;;21364332;27;20035;-79
2023/11/01 02:45:30;;;;;;;;;;;6.20;99.90;;;;;;21366497;27;19915;-79
2023/11/01 02:55:30;;;;;;;;;;;6.30;99.90;;;;;;21365775;27;20025;-80
2023/11/01 03:05:31;;;;;;;;;;;6.30;99.90;;;;;;21375831;27;20388;-79
2023/11/01 03:15:31;;;;;;;;;;;6.50;99.90;;;;;;21378024;27;19914;-80
2023/11/01 03:25:32;;;;;;;;;;;6.40;99.90;;;;;;21385295;27;19918;-80
2023/11/01 03:35:33;;;;;;;;;;;6.50;99.90;;;;;;21376051;27;20446;-80
2023/11/01 03:45:33;;;;;;;;;;;6.30;99.90;;;;;;21377477;27;20281;-80
2023/11/01 03:55:34;;;;;;;;;;;6.30;99.90;;;;;;21348227;27;19932;-79
2023/11/01 04:05:35;;;;;;;;;;;6.40;99.90;;;;;;21364923;27;19974;-80
2023/11/01 04:15:36;;;;;;;;;;;6.30;99.90;;;;;;21364175;27;19946;-80
2023/11/01 04:25:36;;;;;;;;;;;6.30;99.90;;;;;;21374747;27;19911;-80
2023/11/01 04:35:37;;;;;;;;;;;6.30;99.90;;;;;;21366568;27;20429;-79
2023/11/01 04:45:38;;;;;;;;;;;6.30;99.90;;;;;;21363922;27;19931;-80
2023/11/01 04:55:38;;;;;;;;;;;6.20;99.90;;;;;;21369093;27;19929;-80
2023/11/01 05:05:39;;;;;;;;;;;6.20;99.90;;;;;;21363692;27;19918;-79
2023/11/01 05:15:40;;;;;;;;;;;6.10;99.90;;;;;;21379975;27;19961;-78
2023/11/01 05:25:41;;;;;;;;;;;6.20;99.90;;;;;;21381322;27;19917;-78
2023/11/01 05:35:42;;;;;;;;;;;6.20;99.90;;;;;;21377651;27;19915;-78
2023/11/01 05:45:42;;;;;;;;;;;6.30;99.90;;;;;;21388245;27;19911;-78
2023/11/01 05:55:45;;;;;;;;;;;6.40;99.90;;;;;;21374621;27;20345;-79
2023/11/01 06:05:46;;;;;;;;;;;6.30;99.90;;;;;;21373275;27;20361;-78
2023/11/01 06:15:49;;;;;;;;;;;6.30;99.90;;;;;;21377100;27;19961;-79
2023/11/01 06:25:50;;;;;;;;;;;6.40;99.90;;;;;;21310459;27;19922;-78
2023/11/01 06:35:51;;;;;;;;;;;6.30;99.90;;;;;;21310092;27;19915;-79
2023/11/01 06:45:51;;;;;;;;;;;6.30;99.90;;;;;;21310457;27;19937;-79
2023/11/01 06:55:52;;;;;;;;;;;6.40;99.90;;;;;;21310876;27;19915;-79
2023/11/01 07:05:52;;;;;;;;;;;6.40;99.90;;;;;;21316535;27;19918;-79
2023/11/01 07:15:54;;;;;;;;;;;6.50;99.90;;;;;;21302407;27;20382;-78
2023/11/01 07:25:54;;;;;;;;;;;6.70;99.90;;;;;;21301318;27;20044;-79
2023/11/01 07:35:55;;;;;;;;;;;6.90;99.90;;;;;;21295586;27;19922;-78
2023/11/01 07:45:56;;;;;;;;;;;7.10;99.90;;;;;;21338651;27;20009;-80
2023/11/01 07:55:56;;;;;;;;;;;7.40;99.90;;;;;;21311372;27;19953;-79
2023/11/01 08:05:57;;;;;;;;;;;7.40;99.90;;;;;;21309543;27;19911;-80
2023/11/01 08:15:58;;;;;;;;;;;7.50;99.90;;;;;;21306652;27;19959;-80
2023/11/01 08:25:58;;;;;;;;;;;7.60;99.90;;;;;;21315072;27;20278;-80
2023/11/01 08:35:59;;;;;;;;;;;7.90;99.90;;;;;;21321404;27;19923;-79
2023/11/01 08:46:00;;;;;;;;;;;8.40;99.90;;;;;;21308462;27;19955;-78
2023/11/01 08:56:00;;;;;;;;;;;8.90;99.90;;;;;;21330254;27;19918;-78
2023/11/01 09:06:01;;;;;;;;;;;9.10;99.90;;;;;;21363273;27;19917;-78
2023/11/01 09:16:01;;;;;;;;;;;9.50;99.90;;;;;;21368344;27;19936;-80
2023/11/01 09:26:02;;;;;;;;;;;9.50;99.90;;;;;;21377701;27;19911;-78
2023/11/01 09:36:03;;;;;;;;;;;9.70;99.90;;;;;;21378756;27;19915;-79
2023/11/01 09:46:05;;;;;;;;;;;10.40;99.90;;;;;;21378861;27;19953;-78
2023/11/01 09:56:06;;;;;;;;;;;10.10;99.90;;;;;;21361555;27;19936;-79
2023/11/01 10:06:07;;;;;;;;;;;10.80;99.90;;;;;;21363052;27;20262;-81
2023/11/01 10:16:08;;;;;;;;;;;10.60;99.90;;;;;;21364152;27;19973;-79
2023/11/01 10:26:09;;;;;;;;;;;10.00;99.90;;;;;;21366961;27;19911;-80
2023/11/01 10:36:09;;;;;;;;;;;9.60;99.90;;;;;;21372693;27;19915;-79
2023/11/01 10:46:10;;;;;;;;;;;9.40;99.90;;;;;;21373993;27;19963;-81
2023/11/01 10:56:11;;;;;;;;;;;10.00;99.90;;;;;;21367919;27;20147;-81
2023/11/01 11:06:15;;;;;;;;;;;10.20;99.90;;;;;;21377282;27;20032;-80
2023/11/01 11:16:20;;;;;;;;;;;11.20;99.90;;;;;;21368207;27;19919;-78
2023/11/01 11:26:37;;;;;;;;;;;12.30;99.90;;;;;;21364157;27;20001;-78
2023/11/01 11:36:38;;;;;;;;;;;13.30;99.90;;;;;;21342463;27;19922;-78
2023/11/01 11:46:40;;;;;;;;;;;13.60;99.90;;;;;;21340158;27;19911;-78
2023/11/01 11:56:41;;;;;;;;;;;12.30;99.90;;;;;;21354718;27;19922;-80
2023/11/01 12:06:44;;;;;;;;;;;11.50;99.90;;;;;;21341083;27;19919;-81
2023/11/01 12:16:45;;;;;;;;;;;11.70;99.90;;;;;;21364271;27;20365;-80
2023/11/01 12:26:54;;;;;;;;;;;11.40;99.90;;;;;;21351493;27;19911;-81
2023/11/01 12:37:05;;;;;;;;;;;10.90;99.90;;;;;;21341680;27;19921;-81
2023/11/01 12:47:07;;;;;;;;;;;11.50;99.90;;;;;;21395303;27;19918;-79
2023/11/01 12:57:08;;;;;;;;;;;12.20;99.90;;;;;;21356488;27;19922;-80
2023/11/01 13:07:09;;;;;;;;;;;12.60;99.90;;;;;;21363984;27;20369;-81
2023/11/01 13:17:10;;;;;;;;;;;13.10;99.90;;;;;;21338221;27;19930;-81
2023/11/01 13:27:11;;;;;;;;;;;12.50;99.90;;;;;;21362692;27;19915;-80
2023/11/01 13:37:13;;;;;;;;;;;12.20;99.90;;;;;;21279273;27;19947;-80
2023/11/01 13:47:14;;;;;;;;;;;13.20;99.90;;;;;;21274942;27;19919;-80
2023/11/01 13:57:15;;;;;;;;;;;12.90;99.90;;;;;;21272390;27;20476;-81
2023/11/01 14:07:15;;;;;;;;;;;11.70;99.90;;;;;;21250692;27;19970;-81
2023/11/01 14:17:16;;;;;;;;;;;11.40;99.90;;;;;;21265996;27;20373;-79
2023/11/01 14:27:17;;;;;;;;;;;11.10;99.90;;;;;;21270034;27;19913;-81
2023/11/01 14:37:17;;;;;;;;;;;11.20;99.90;;;;;;21266609;27;20370;-80
2023/11/01 14:47:18;;;;;;;;;;;10.90;99.90;;;;;;21265252;27;20399;-80
2023/11/01 14:57:19;;;;;;;;;;;10.60;99.90;;;;;;21260066;27;19916;-81
2023/11/01 15:07:19;;;;;;;;;;;10.50;99.90;;;;;;21245016;27;19917;-81
2023/11/01 15:17:20;;;;;;;;;;;10.50;99.90;;;;;;21261319;27;20595;-82
2023/11/01 15:27:22;;;;;;;;;;;10.50;99.90;;;;;;21257861;27;19932;-80
2023/11/01 15:37:22;;;;;;;;;;;10.50;99.90;;;;;;21356945;27;19950;-80
2023/11/01 15:47:23;;;;;;;;;;;10.40;99.90;;;;;;21381914;27;19921;-79
2023/11/01 15:57:24;;;;;;;;;;;10.30;99.90;;;;;;21349876;27;19915;-80
2023/11/01 16:07:25;;;;;;;;;;;10.40;99.90;;;;;;21373296;27;19915;-80
2023/11/01 16:17:25;;;;;;;;;;;10.30;99.90;;;;;;21331367;27;20361;-80
2023/11/01 16:27:26;;;;;;;;;;;10.20;99.90;;;;;;21333639;27;19970;-79
2023/11/01 16:37:28;;;;;;;;;;;10.00;99.90;;;;;;21278350;27;20052;-79
2023/11/01 16:47:29;;;;;;;;;;;10.10;99.90;;;;;;21276602;27;19919;-79
2023/11/01 16:57:30;;;;;;;;;;;10.20;99.90;;;;;;21277869;27;20278;-80
2023/11/01 17:07:30;;;;;;;;;;;10.30;99.90;;;;;;21293486;27;19919;-78
2023/11/01 17:17:31;;;;;;;;;;;9.80;99.90;;;;;;21292057;27;19920;-79
2023/11/01 17:27:35;;;;;;;;;;;10.00;99.90;;;;;;21269479;27;19931;-80
2023/11/01 17:37:35;;;;;;;;;;;9.80;99.90;;;;;;21295671;27;20293;-79
2023/11/01 17:47:37;;;;;;;;;;;9.70;99.90;;;;;;21290594;27;19918;-79
2023/11/01 17:57:39;;;;;;;;;;;9.40;99.90;;;;;;21271446;27;20324;-80
2023/11/01 18:07:39;;;;;;;;;;;9.30;99.90;;;;;;21295166;27;19919;-79
2023/11/01 18:17:40;;;;;;;;;;;9.20;99.90;;;;;;21288424;27;19919;-79
2023/11/01 18:27:40;;;;;;;;;;;9.30;99.90;;;;;;21288573;27;19915;-79
2023/11/01 18:37:41;;;;;;;;;;;9.30;99.90;;;;;;21283584;27;19973;-78
2023/11/01 18:47:42;;;;;;;;;;;9.20;99.90;;;;;;21282483;27;19919;-79
2023/11/01 18:57:42;;;;;;;;;;;8.70;99.90;;;;;;21270421;27;20416;-79
2023/11/01 19:07:45;;;;;;;;;;;8.30;99.90;;;;;;21293592;27;19918;-80
2023/11/01 19:17:46;;;;;;;;;;;8.10;99.90;;;;;;21265832;27;19915;-79
2023/11/01 19:27:47;;;;;;;;;;;7.60;99.90;;;;;;21261497;27;20009;-80
2023/11/01 19:37:47;;;;;;;;;;;7.60;99.90;;;;;;21284471;27;19915;-79
2023/11/01 19:47:48;;;;;;;;;;;7.40;99.90;;;;;;21258789;27;20273;-78
2023/11/01 19:57:49;;;;;;;;;;;7.40;99.90;;;;;;21295493;27;19992;-78
2023/11/01 20:07:49;;;;;;;;;;;6.90;99.90;;;;;;21283329;27;19912;-78
2023/11/01 20:17:50;;;;;;;;;;;6.80;99.90;;;;;;21280388;27;19923;-78
2023/11/01 20:27:51;;;;;;;;;;;6.30;99.90;;;;;;21280969;27;19916;-79
2023/11/01 20:37:51;;;;;;;;;;;6.50;99.90;;;;;;21283709;27;19967;-78
2023/11/01 20:47:52;;;;;;;;;;;6.70;99.90;;;;;;21279045;27;19940;-79
2023/11/01 20:57:54;;;;;;;;;;;6.50;99.90;;;;;;21268324;27;20302;-79
2023/11/01 21:07:54;;;;;;;;;;;6.60;99.90;;;;;;21287756;27;19919;-78
2023/11/01 21:17:55;;;;;;;;;;;6.40;99.90;;;;;;21289124;27;19925;-78
2023/11/01 21:27:59;;;;;;;;;;;6.70;99.90;;;;;;21294554;27;20456;-78
2023/11/01 21:38:01;;;;;;;;;;;6.90;99.90;;;;;;21287419;27;19916;-79
2023/11/01 21:48:04;;;;;;;;;;;6.50;99.90;;;;;;21283246;27;20464;-80
2023/11/01 21:58:05;;;;;;;;;;;6.30;99.90;;;;;;21281332;27;19922;-79
2023/11/01 22:08:05;;;;;;;;;;;6.50;99.90;;;;;;21278873;27;19951;-78
2023/11/01 22:18:06;;;;;;;;;;;6.80;99.90;;;;;;21276289;27;19916;-80
2023/11/01 22:28:07;;;;;;;;;;;6.70;99.90;;;;;;21283847;27;19951;-80
2023/11/01 22:38:09;;;;;;;;;;;6.50;99.90;;;;;;21279653;27;19958;-80
2023/11/01 22:48:11;;;;;;;;;;;6.10;99.90;;;;;;21290956;27;20037;-79
2023/11/01 22:58:12;;;;;;;;;;;5.80;99.90;;;;;;21275173;27;19919;-78
2023/11/01 23:08:12;;;;;;;;;;;5.90;99.90;;;;;;21272609;27;19964;-79
2023/11/01 23:18:13;;;;;;;;;;;6.20;99.90;;;;;;21289290;27;19915;-79
2023/11/01 23:28:32;;;;;;;;;;;6.40;99.90;;;;;;21290072;27;19922;-80
2023/11/01 23:38:42;;;;;;;;;;;6.50;99.90;;;;;;21290303;27;20418;-81
2023/11/01 23:48:43;;;;;;;;;;;6.30;99.90;;;;;;21273469;27;19916;-80
2023/11/01 23:58:44;;;;;;;;;;;6.40;99.90;;;;;;21269844;27;20385;-81
